| time (UTC) | temp F | wind direction | speed knots | gust knots | rain 1hr in | rain 24hr in | rain mn in | humidity % | barometer mb |
| 20260503222633 | 65 | 5 | 0.9 | 5.2 | 0.00 | 0.00 | 0.00 | 28 | 1018.8 |
| 20260503222139 | 65 | 75 | 0.9 | 3.5 | 0.00 | 0.00 | 0.00 | 28 | 1018.9 |
| 20260503221648 | 64 | 132 | 0.9 | 4.3 | 0.00 | 0.00 | 0.00 | 28 | 1018.9 |
| 20260503221159 | 65 | 329 | 1.7 | 4.3 | 0.00 | 0.00 | 0.00 | 27 | 1019.1 |
| 20260503220629 | 65 | 275 | 1.7 | 7.0 | 0.00 | 0.00 | 0.00 | 28 | 1019.2 |
| 20260503220201 | 65 | 128 | 3.5 | 7.0 | 0.00 | 0.00 | 0.00 | 27 | 1019.2 |
| 20260503215629 | 65 | 63 | 1.7 | 7.0 | 0.00 | 0.00 | 0.00 | 27 | 1019.2 |
| 20260503215122 | 66 | 45 | 1.7 | 5.2 | 0.00 | 0.00 | 0.00 | 27 | 1019.4 |
| 20260503214635 | 65 | 248 | 0.9 | 7.8 | 0.00 | 0.00 | 0.00 | 27 | 1019.4 |
| 20260503214148 | 65 | 130 | 3.5 | 7.8 | 0.00 | 0.00 | 0.00 | 27 | 1019.4 |
| 20260503213657 | 65 | 135 | 2.6 | 8.7 | 0.00 | 0.00 | 0.00 | 27 | 1019.6 |
| 20260503213128 | 66 | 336 | 3.5 | 8.7 | 0.00 | 0.00 | 0.00 | 26 | 1019.7 |
| 20260503212638 | 65 | 198 | 0.9 | 7.0 | 0.00 | 0.00 | 0.00 | 27 | 1019.7 |
| 20260503212134 | 66 | 129 | 0.9 | 6.1 | 0.00 | 0.00 | 0.00 | 26 | 1019.8 |
| 20260503211647 | 65 | 333 | 1.7 | 6.1 | 0.00 | 0.00 | 0.00 | 27 | 1020.0 |
| 20260503211139 | 64 | 322 | 1.7 | 4.3 | 0.00 | 0.00 | 0.00 | 30 | 1020.1 |
| 20260503210632 | 64 | 165 | 3.5 | 10.4 | 0.00 | 0.00 | 0.00 | 26 | 1020.2 |
| 20260503210125 | 64 | 78 | 1.7 | 8.7 | 0.00 | 0.00 | 0.00 | 27 | 1020.2 |
| 20260503205639 | 64 | 121 | 1.7 | 8.7 | 0.00 | 0.00 | 0.00 | 28 | 1020.4 |
| 20260503205133 | 64 | 63 | 1.7 | 7.8 | 0.00 | 0.00 | 0.00 | 29 | 1020.4 |
| 20260503204645 | 64 | 191 | 3.5 | 7.8 | 0.00 | 0.00 | 0.00 | 27 | 1020.7 |
| 20260503204138 | 64 | 94 | 2.6 | 7.0 | 0.00 | 0.00 | 0.00 | 28 | 1020.7 |
| 20260503203635 | 63 | 87 | 0.9 | 4.3 | 0.00 | 0.00 | 0.00 | 28 | 1020.7 |
| 20260503203150 | 63 | 342 | 1.7 | 7.0 | 0.00 | 0.00 | 0.00 | 29 | 1020.9 |
| 20260503202644 | 64 | 49 | 1.7 | 9.6 | 0.00 | 0.00 | 0.00 | 29 | 1021.0 |
| 20260503202137 | 64 | 250 | 3.5 | 9.6 | 0.00 | 0.00 | 0.00 | 27 | 1021.2 |
| 20260503201631 | 65 | 324 | 1.7 | 7.0 | 0.00 | 0.00 | 0.00 | 28 | 1021.3 |
| 20260503201125 | 64 | 69 | 2.6 | 7.0 | 0.00 | 0.00 | 0.00 | 28 | 1021.3 |
| 20260503200638 | 65 | 120 | 1.7 | 5.2 | 0.00 | 0.00 | 0.00 | 27 | 1021.5 |
| 20260503200133 | 65 | 132 | 2.6 | 7.0 | 0.00 | 0.00 | 0.00 | 27 | 1021.3 |
| 20260503195647 | 64 | 88 | 2.6 | 7.0 | 0.00 | 0.00 | 0.00 | 31 | 1021.3 |
| 20260503195122 | 63 | 146 | 0.9 | 7.8 | 0.00 | 0.00 | 0.00 | 31 | 1021.5 |
| 20260503194636 | 62 | 293 | 0.9 | 7.8 | 0.00 | 0.00 | 0.00 | 32 | 1021.6 |
| 20260503194130 | 61 | 178 | 2.6 | 7.0 | 0.00 | 0.00 | 0.00 | 32 | 1021.6 |
| 20260503193622 | 61 | 331 | 2.6 | 7.0 | 0.00 | 0.00 | 0.00 | 32 | 1021.9 |
| 20260503193136 | 61 | 182 | 0.9 | 6.1 | 0.00 | 0.00 | 0.00 | 33 | 1022.0 |
| 20260503192630 | 61 | 128 | 2.6 | 6.1 | 0.00 | 0.00 | 0.00 | 33 | 1022.0 |
| 20260503192123 | 61 | 304 | 1.7 | 4.3 | 0.00 | 0.00 | 0.00 | 34 | 1022.1 |
| 20260503191636 | 61 | 148 | 1.7 | 7.8 | 0.00 | 0.00 | 0.00 | 33 | 1022.2 |
| 20260503191149 | 61 | 126 | 1.7 | 7.8 | 0.00 | 0.00 | 0.00 | 33 | 1022.2 |
| 20260503190626 | 62 | 319 | 2.6 | 6.1 | 0.00 | 0.00 | 0.00 | 34 | 1022.4 |
| 20260503190139 | 62 | 153 | 1.7 | 6.1 | 0.00 | 0.00 | 0.00 | 35 | 1022.6 |
| 20260503185633 | 62 | 202 | 0.9 | 9.6 | 0.00 | 0.00 | 0.00 | 35 | 1022.6 |
| 20260503185146 | 63 | 177 | 4.3 | 9.6 | 0.00 | 0.00 | 0.00 | 34 | 1022.7 |
| 20260503184637 | 62 | 278 | 0.9 | 7.0 | 0.00 | 0.00 | 0.00 | 34 | 1022.7 |
| 20260503184131 | 62 | 171 | 1.7 | 7.0 | 0.00 | 0.00 | 0.00 | 35 | 1022.8 |
| 20260503183626 | 61 | 221 | 0.9 | 3.5 | 0.00 | 0.00 | 0.00 | 37 | 1023.0 |
| 20260503183138 | 60 | 107 | 0.9 | 7.0 | 0.00 | 0.00 | 0.00 | 36 | 1023.1 |
| 20260503182631 | 60 | 122 | 2.6 | 7.0 | 0.00 | 0.00 | 0.00 | 34 | 1023.1 |
| 20260503182128 | 61 | 81 | 1.7 | 7.0 | 0.00 | 0.00 | 0.00 | 34 | 1023.2 |
| 20260503181623 | 61 | 89 | 1.7 | 7.0 | 0.00 | 0.00 | 0.00 | 35 | 1023.4 |
| 20260503181137 | 61 | 110 | 1.7 | 7.0 | 0.00 | 0.00 | 0.00 | 35 | 1023.4 |
| 20260503180630 | 61 | 115 | 2.6 | 7.0 | 0.00 | 0.00 | 0.00 | 36 | 1023.4 |
| 20260503180124 | 61 | 144 | 1.7 | 5.2 | 0.00 | 0.00 | 0.00 | 36 | 1023.5 |
| 20260503175658 | 61 | 142 | 2.6 | 5.2 | 0.00 | 0.00 | 0.00 | 35 | 1023.6 |
| 20260503175130 | 61 | 156 | 2.6 | 6.1 | 0.00 | 0.00 | 0.00 | 35 | 1023.6 |
| 20260503174625 | 61 | 182 | 1.7 | 6.1 | 0.00 | 0.00 | 0.00 | 36 | 1023.7 |
| 20260503174143 | 61 | 112 | 1.7 | 5.2 | 0.00 | 0.00 | 0.00 | 39 | 1023.7 |
| 20260503173636 | 60 | 279 | 1.7 | 6.1 | 0.00 | 0.00 | 0.00 | 36 | 1023.7 |
| 20260503173129 | 60 | 123 | 1.7 | 4.3 | 0.00 | 0.00 | 0.00 | 38 | 1024.0 |
| 20260503172643 | 60 | 96 | 1.7 | 6.1 | 0.00 | 0.00 | 0.00 | 41 | 1024.1 |
| 20260503172136 | 60 | 284 | 0.0 | 6.1 | 0.00 | 0.00 | 0.00 | 40 | 1024.1 |
| 20260503171630 | 59 | 145 | 1.7 | 4.3 | 0.00 | 0.00 | 0.00 | 41 | 1024.3 |
| 20260503171125 | 58 | 121 | 1.7 | 6.1 | 0.00 | 0.00 | 0.00 | 41 | 1024.1 |
| 20260503170639 | 58 | 167 | 4.3 | 6.1 | 0.00 | 0.00 | 0.00 | 41 | 1024.2 |
| 20260503170134 | 58 | 54 | 2.6 | 4.3 | 0.00 | 0.00 | 0.00 | 42 | 1024.1 |
| 20260503160126 | 54 | 62 | 0.9 | 4.3 | 0.00 | 0.01 | 0.00 | 47 | 1024.6 |
| 20260503150629 | 51 | 150 | 1.7 | 3.5 | 0.00 | 0.01 | 0.00 | 52 | 1025.0 |
| 20260503150124 | 51 | 102 | 0.9 | 4.3 | 0.00 | 0.01 | 0.00 | 56 | 1025.1 |
| 20260503140126 | 42 | 189 | 0.0 | 0.0 | 0.00 | 0.01 | 0.00 | 84 | 1025.0 |
| 20260503131124 | 33 | 302 | 0.0 | 0.0 | 0.00 | 0.01 | 0.00 | 87 | 1025.3 |
| 20260503130640 | 33 | 302 | 0.0 | 0.0 | 0.00 | 0.01 | 0.00 | 87 | 1025.2 |
| 20260503130155 | 33 | 302 | 0.0 | 0.0 | 0.00 | 0.01 | 0.00 | 87 | 1025.3 |
| 20260503120126 | 33 | 302 | 0.0 | 0.0 | 0.00 | 0.01 | 0.00 | 84 | 1024.8 |
| 20260503110640 | 34 | 302 | 0.0 | 0.0 | 0.00 | 0.01 | 0.00 | 82 | 1024.7 |
| 20260503110140 | 34 | 302 | 0.0 | 0.0 | 0.00 | 0.01 | 0.00 | 82 | 1024.6 |
| 20260503100125 | 35 | 360 | 0.0 | 0.0 | 0.00 | 0.01 | 0.00 | 81 | 1024.8 |
| 20260503090127 | 37 | 360 | 0.0 | 0.0 | 0.00 | 0.01 | 0.00 | 77 | 1024.8 |
| 20260503081630 | 39 | 360 | 0.0 | 0.0 | 0.00 | 0.01 | 0.00 | 75 | 1024.8 |
| 20260503081130 | 39 | 360 | 0.0 | 0.0 | 0.00 | 0.01 | 0.00 | 75 | 1024.9 |
| 20260503080625 | 39 | 360 | 0.0 | 0.0 | 0.00 | 0.01 | 0.00 | 75 | 1024.9 |
| 20260503080141 | 39 | 360 | 0.0 | 0.0 | 0.00 | 0.01 | 0.00 | 74 | 1024.8 |
| 20260503072631 | 41 | 308 | 0.0 | 0.0 | 0.00 | 0.01 | 0.00 | 71 | 1025.1 |
| 20260503072148 | 41 | 308 | 0.0 | 0.0 | 0.00 | 0.01 | 0.00 | 71 | 1025.2 |
| 20260503071623 | 41 | 308 | 0.0 | 0.0 | 0.00 | 0.01 | 0.00 | 71 | 1025.2 |
| 20260503071137 | 41 | 308 | 0.0 | 0.0 | 0.00 | 0.01 | 0.00 | 71 | 1025.2 |
| 20260503070634 | 41 | 308 | 0.0 | 0.0 | 0.00 | 0.01 | 0.00 | 70 | 1025.2 |
| 20260503070128 | 42 | 308 | 0.0 | 0.0 | 0.00 | 0.01 | 0.00 | 69 | 1025.3 |
| 20260503060138 | 42 | 282 | 0.0 | 0.0 | 0.00 | 0.01 | 0.00 | 67 | 1025.1 |
| 20260503054623 | 42 | 282 | 0.0 | 0.0 | 0.00 | 0.01 | 0.01 | 65 | 1025.0 |
| 20260503054159 | 42 | 282 | 0.0 | 0.0 | 0.00 | 0.01 | 0.01 | 64 | 1024.9 |
| 20260503053635 | 42 | 282 | 0.0 | 0.0 | 0.00 | 0.01 | 0.01 | 63 | 1025.0 |
| 20260503053130 | 42 | 281 | 0.0 | 0.0 | 0.00 | 0.01 | 0.01 | 62 | 1025.0 |
| 20260503052629 | 43 | 281 | 0.0 | 0.0 | 0.00 | 0.01 | 0.01 | 63 | 1025.1 |
| 20260503052125 | 43 | 281 | 0.0 | 0.0 | 0.00 | 0.01 | 0.01 | 62 | 1025.0 |
| 20260503051640 | 43 | 280 | 0.0 | 0.0 | 0.00 | 0.01 | 0.01 | 60 | 1025.0 |
| 20260503051136 | 43 | 280 | 0.0 | 0.0 | 0.00 | 0.01 | 0.01 | 61 | 1025.0 |
| 20260503050631 | 44 | 280 | 0.0 | 0.0 | 0.00 | 0.01 | 0.01 | 60 | 1025.0 |
| 20260503050127 | 44 | 277 | 0.0 | 0.0 | 0.00 | 0.01 | 0.01 | 59 | 1025.0 |
| 20260503045621 | 44 | 277 | 0.0 | 0.0 | 0.00 | 0.01 | 0.01 | 57 | 1025.0 |
| 20260503045121 | 45 | 258 | 0.0 | 0.0 | 0.00 | 0.01 | 0.01 | 57 | 1025.0 |
| 20260503044636 | 45 | 258 | 0.0 | 0.0 | 0.00 | 0.01 | 0.01 | 57 | 1025.0 |
| 20260503044132 | 45 | 258 | 0.0 | 0.0 | 0.00 | 0.01 | 0.01 | 55 | 1025.0 |
| 20260503043628 | 45 | 258 | 0.0 | 0.0 | 0.00 | 0.01 | 0.01 | 54 | 1024.9 |
| 20260503043143 | 46 | 258 | 0.0 | 0.0 | 0.00 | 0.01 | 0.01 | 56 | 1024.8 |
| 20260503042637 | 45 | 258 | 0.0 | 0.0 | 0.00 | 0.01 | 0.01 | 55 | 1024.8 |
| 20260503042152 | 44 | 196 | 0.0 | 0.0 | 0.00 | 0.01 | 0.01 | 56 | 1024.7 |
| 20260503041627 | 44 | 340 | 0.0 | 0.0 | 0.00 | 0.01 | 0.01 | 62 | 1024.7 |
| 20260503041126 | 43 | 202 | 0.0 | 0.0 | 0.00 | 0.01 | 0.01 | 63 | 1024.5 |
| 20260503040642 | 43 | 263 | 0.0 | 0.0 | 0.00 | 0.01 | 0.01 | 63 | 1024.5 |
| 20260503040136 | 43 | 263 | 0.0 | 0.0 | 0.00 | 0.01 | 0.01 | 63 | 1024.4 |
| 20260503035629 | 43 | 263 | 0.0 | 0.0 | 0.00 | 0.01 | 0.01 | 63 | 1024.4 |
| 20260503035126 | 43 | 263 | 0.0 | 0.0 | 0.00 | 0.01 | 0.01 | 62 | 1024.3 |
| 20260503034641 | 43 | 263 | 0.0 | 0.0 | 0.00 | 0.01 | 0.01 | 61 | 1024.4 |
| 20260503034136 | 44 | 263 | 0.0 | 0.0 | 0.00 | 0.01 | 0.01 | 57 | 1024.4 |
| 20260503033631 | 44 | 263 | 0.0 | 0.0 | 0.00 | 0.01 | 0.01 | 59 | 1024.3 |
| 20260503033131 | 44 | 263 | 0.0 | 0.0 | 0.00 | 0.01 | 0.01 | 59 | 1024.3 |
| 20260503032627 | 45 | 263 | 0.0 | 0.0 | 0.00 | 0.01 | 0.01 | 58 | 1024.3 |
| 20260503032142 | 45 | 263 | 0.0 | 0.0 | 0.00 | 0.01 | 0.01 | 55 | 1024.2 |
| 20260503031656 | 45 | 263 | 0.0 | 0.0 | 0.00 | 0.01 | 0.01 | 56 | 1024.3 |
| 20260503031128 | 46 | 263 | 0.0 | 0.0 | 0.00 | 0.01 | 0.01 | 56 | 1024.1 |
| 20260503030623 | 46 | 263 | 0.0 | 0.0 | 0.00 | 0.01 | 0.01 | 56 | 1024.0 |
| 20260503030138 | 46 | 263 | 0.0 | 0.0 | 0.00 | 0.01 | 0.01 | 52 | 1023.9 |
| 20260503025634 | 47 | 263 | 0.0 | 0.0 | 0.00 | 0.01 | 0.01 | 53 | 1023.9 |
| 20260503025129 | 47 | 263 | 0.0 | 0.0 | 0.00 | 0.01 | 0.01 | 55 | 1023.9 |
| 20260503024625 | 48 | 263 | 0.0 | 0.0 | 0.00 | 0.01 | 0.01 | 53 | 1023.7 |
| 20260503024124 | 48 | 263 | 0.0 | 0.0 | 0.00 | 0.01 | 0.01 | 53 | 1023.7 |
| 20260503023640 | 48 | 263 | 0.0 | 0.0 | 0.00 | 0.01 | 0.01 | 53 | 1023.7 |
| 20260503023155 | 48 | 263 | 0.0 | 0.0 | 0.00 | 0.01 | 0.01 | 50 | 1023.6 |
| 20260503022628 | 49 | 263 | 0.0 | 0.0 | 0.00 | 0.01 | 0.01 | 51 | 1023.7 |
| 20260503022124 | 49 | 263 | 0.0 | 0.0 | 0.00 | 0.01 | 0.01 | 51 | 1023.7 |
| 20260503021639 | 50 | 263 | 0.0 | 0.0 | 0.00 | 0.01 | 0.01 | 51 | 1023.6 |
| 20260503021154 | 51 | 263 | 0.0 | 0.0 | 0.00 | 0.01 | 0.01 | 50 | 1023.6 |
| 20260503020647 | 51 | 263 | 0.0 | 0.0 | 0.00 | 0.01 | 0.01 | 49 | 1023.6 |
| 20260503020139 | 52 | 263 | 0.0 | 0.0 | 0.00 | 0.01 | 0.01 | 47 | 1023.5 |
| 20260503015651 | 52 | 263 | 0.0 | 0.0 | 0.00 | 0.05 | 0.01 | 43 | 1023.5 |
| 20260503015148 | 53 | 263 | 0.0 | 0.0 | 0.00 | 0.05 | 0.01 | 44 | 1023.5 |
| 20260503014640 | 53 | 263 | 0.0 | 0.0 | 0.00 | 0.05 | 0.01 | 42 | 1023.5 |
| 20260503014134 | 54 | 263 | 0.0 | 0.0 | 0.00 | 0.05 | 0.01 | 43 | 1023.4 |
| 20260503013627 | 54 | 263 | 0.0 | 0.0 | 0.00 | 0.05 | 0.01 | 38 | 1023.4 |
| 20260503013121 | 55 | 263 | 0.0 | 0.0 | 0.00 | 0.05 | 0.01 | 38 | 1023.4 |
| 20260503012636 | 55 | 263 | 0.0 | 0.0 | 0.00 | 0.05 | 0.01 | 37 | 1023.3 |
| 20260503012128 | 56 | 263 | 0.0 | 0.0 | 0.00 | 0.05 | 0.01 | 35 | 1023.3 |
| 20260503011621 | 56 | 263 | 0.0 | 0.0 | 0.00 | 0.05 | 0.01 | 34 | 1023.2 |
| 20260503011135 | 56 | 263 | 0.0 | 0.0 | 0.00 | 0.05 | 0.01 | 34 | 1023.3 |
| 20260503010632 | 57 | 263 | 0.0 | 0.0 | 0.00 | 0.05 | 0.01 | 35 | 1023.2 |
| 20260503010145 | 57 | 263 | 0.0 | 0.0 | 0.00 | 0.11 | 0.01 | 34 | 1023.2 |
| 20260503005657 | 58 | 263 | 0.0 | 0.0 | 0.00 | 0.11 | 0.01 | 30 | 1023.2 |
| 20260503005130 | 58 | 263 | 0.0 | 0.0 | 0.00 | 0.11 | 0.01 | 27 | 1023.2 |
| 20260503004623 | 58 | 263 | 0.0 | 1.7 | 0.00 | 0.11 | 0.01 | 28 | 1023.2 |
| 20260503004156 | 59 | 263 | 0.0 | 1.7 | 0.00 | 0.11 | 0.01 | 28 | 1023.2 |
| 20260503003628 | 59 | 306 | 0.0 | 2.6 | 0.00 | 0.11 | 0.01 | 28 | 1023.2 |
| 20260503003122 | 59 | 311 | 0.9 | 2.6 | 0.00 | 0.11 | 0.01 | 26 | 1023.1 |
| 20260503002635 | 59 | 302 | 0.9 | 2.6 | 0.00 | 0.11 | 0.01 | 26 | 1023.1 |
| 20260503002149 | 59 | 292 | 0.9 | 2.6 | 0.00 | 0.11 | 0.01 | 26 | 1023.1 |
| 20260503001639 | 60 | 40 | 0.9 | 6.1 | 0.00 | 0.11 | 0.01 | 26 | 1023.2 |
| 20260503001153 | 60 | 157 | 2.6 | 6.1 | 0.00 | 0.11 | 0.01 | 26 | 1023.2 |
| 20260503000631 | 60 | 92 | 1.7 | 5.2 | 0.00 | 0.11 | 0.01 | 25 | 1023.2 |
| 20260503000127 | 60 | 186 | 1.7 | 5.2 | 0.00 | 0.11 | 0.01 | 25 | 1023.2 |
| 20260502235701 | 60 | 150 | 0.0 | 2.6 | 0.00 | 0.11 | 0.01 | 26 | 1023.2 |
| 20260502235156 | 59 | 150 | 0.9 | 4.3 | 0.00 | 0.11 | 0.01 | 26 | 1023.2 |
| 20260502234631 | 60 | 36 | 1.7 | 6.1 | 0.00 | 0.11 | 0.01 | 25 | 1023.2 |
| 20260502234126 | 60 | 153 | 1.7 | 5.2 | 0.00 | 0.11 | 0.01 | 26 | 1023.2 |
| 20260502233621 | 60 | 159 | 2.6 | 4.3 | 0.00 | 0.11 | 0.01 | 26 | 1023.2 |
| 20260502233136 | 60 | 153 | 1.7 | 5.2 | 0.00 | 0.11 | 0.01 | 25 | 1023.2 |
| 20260502232631 | 59 | 182 | 1.7 | 5.2 | 0.00 | 0.11 | 0.01 | 25 | 1023.2 |
| 20260502232128 | 59 | 145 | 2.6 | 4.3 | 0.00 | 0.11 | 0.01 | 26 | 1023.2 |
| 20260502231622 | 59 | 109 | 0.0 | 3.5 | 0.00 | 0.11 | 0.01 | 27 | 1023.2 |
| 20260502231134 | 59 | 20 | 0.9 | 6.1 | 0.00 | 0.11 | 0.01 | 26 | 1023.1 |
| 20260502230628 | 59 | 39 | 2.6 | 6.1 | 0.00 | 0.11 | 0.01 | 26 | 1023.2 |
| 20260502230121 | 59 | 70 | 3.5 | 5.2 | 0.00 | 0.14 | 0.01 | 25 | 1023.2 |
| 20260502225637 | 59 | 47 | 1.7 | 5.2 | 0.00 | 0.14 | 0.01 | 25 | 1023.2 |
| 20260502225133 | 60 | 257 | 2.6 | 5.2 | 0.00 | 0.14 | 0.01 | 25 | 1023.2 |
| 20260502224633 | 59 | 221 | 3.5 | 4.3 | 0.00 | 0.14 | 0.01 | 25 | 1023.4 |
| 20260502224148 | 59 | 5 | 0.9 | 2.6 | 0.00 | 0.14 | 0.01 | 25 | 1023.3 |
| 20260502223623 | 59 | 181 | 1.7 | 4.3 | 0.00 | 0.14 | 0.01 | 26 | 1023.4 |
| 20260502223159 | 59 | 128 | 1.7 | 4.3 | 0.00 | 0.14 | 0.01 | 26 | 1023.4 |